Terminal Aerodrome Forecast
Issued by NWS

Current Version | Previous Version | Graphics & Text | Print | Product List | Glossary On
Versions: 1 2 3 4 5 6 7 8 9 10 11 12 13 14 15 16 17 18 19 20
000
FTUS41 KILN 170540
TAFLUK
TAF
KLUK 170540Z 1706/1806 20002KT P6SM BKN250
     FM171500 20004KT P6SM BKN070
     FM171900 20004KT P6SM VCSH SCT020 OVC050
     FM172100 19004KT P6SM OVC045
     FM180400 00000KT P6SM OVC025=

USA.gov is the U.S. government's official web portal to all federal, state and local government web resources and services.